sensor_id;sensor_type;location;lat;lon;timestamp;P1;durP1;ratioP1;P2;durP2;ratioP2
3718;SDS011;1875;52.492;6.860;2022-10-15T00:01:05;127.23;;;41.37;;
3718;SDS011;1875;52.492;6.860;2022-10-15T00:03:36;120.73;;;40.30;;
3718;SDS011;1875;52.492;6.860;2022-10-15T00:06:05;125.77;;;39.27;;
3718;SDS011;1875;52.492;6.860;2022-10-15T00:08:33;131.33;;;46.63;;
3718;SDS011;1875;52.492;6.860;2022-10-15T00:11:02;127.13;;;44.50;;
3718;SDS011;1875;52.492;6.860;2022-10-15T00:13:30;130.80;;;43.37;;
3718;SDS011;1875;52.492;6.860;2022-10-15T00:15:59;118.33;;;41.07;;
3718;SDS011;1875;52.492;6.860;2022-10-15T00:18:28;128.07;;;43.30;;
3718;SDS011;1875;52.492;6.860;2022-10-15T00:20:56;128.37;;;41.80;;
3718;SDS011;1875;52.492;6.860;2022-10-15T00:23:23;123.10;;;43.40;;
3718;SDS011;1875;52.492;6.860;2022-10-15T00:25:59;127.57;;;43.50;;
3718;SDS011;1875;52.492;6.860;2022-10-15T00:28:27;117.87;;;40.73;;
3718;SDS011;1875;52.492;6.860;2022-10-15T00:31:00;128.63;;;40.40;;
3718;SDS011;1875;52.492;6.860;2022-10-15T00:33:34;129.73;;;41.17;;
3718;SDS011;1875;52.492;6.860;2022-10-15T00:36:03;121.43;;;40.87;;
3718;SDS011;1875;52.492;6.860;2022-10-15T00:38:32;121.23;;;41.17;;
3718;SDS011;1875;52.492;6.860;2022-10-15T00:41:00;126.57;;;41.93;;
3718;SDS011;1875;52.492;6.860;2022-10-15T00:43:38;128.70;;;45.57;;
3718;SDS011;1875;52.492;6.860;2022-10-15T00:46:14;126.97;;;41.30;;
3718;SDS011;1875;52.492;6.860;2022-10-15T00:48:47;133.97;;;53.67;;
3718;SDS011;1875;52.492;6.860;2022-10-15T00:51:16;129.63;;;42.77;;
3718;SDS011;1875;52.492;6.860;2022-10-15T00:53:46;131.53;;;43.63;;
3718;SDS011;1875;52.492;6.860;2022-10-15T00:56:14;127.70;;;40.20;;
3718;SDS011;1875;52.492;6.860;2022-10-15T00:58:43;125.10;;;51.63;;
3718;SDS011;1875;52.492;6.860;2022-10-15T01:01:11;125.77;;;40.47;;
3718;SDS011;1875;52.492;6.860;2022-10-15T01:03:38;121.53;;;40.93;;
3718;SDS011;1875;52.492;6.860;2022-10-15T01:06:07;119.23;;;40.87;;
3718;SDS011;1875;52.492;6.860;2022-10-15T01:08:35;137.87;;;49.07;;
3718;SDS011;1875;52.492;6.860;2022-10-15T01:11:06;120.03;;;45.30;;
3718;SDS011;1875;52.492;6.860;2022-10-15T01:13:43;122.50;;;42.67;;
3718;SDS011;1875;52.492;6.860;2022-10-15T01:16:16;135.10;;;47.33;;
3718;SDS011;1875;52.492;6.860;2022-10-15T01:18:46;142.77;;;54.00;;
3718;SDS011;1875;52.492;6.860;2022-10-15T01:21:20;137.30;;;45.53;;
3718;SDS011;1875;52.492;6.860;2022-10-15T01:27:16;133.47;;;43.07;;
3718;SDS011;1875;52.492;6.860;2022-10-15T01:32:56;124.17;;;39.83;;
3718;SDS011;1875;52.492;6.860;2022-10-15T01:35:30;145.57;;;59.43;;
3718;SDS011;1875;52.492;6.860;2022-10-15T01:38:03;128.97;;;42.30;;
3718;SDS011;1875;52.492;6.860;2022-10-15T01:40:37;131.70;;;42.73;;
3718;SDS011;1875;52.492;6.860;2022-10-15T01:43:09;117.17;;;42.27;;
3718;SDS011;1875;52.492;6.860;2022-10-15T01:45:40;126.30;;;39.57;;
3718;SDS011;1875;52.492;6.860;2022-10-15T01:48:11;132.80;;;43.50;;
3718;SDS011;1875;52.492;6.860;2022-10-15T01:50:40;127.43;;;42.80;;
3718;SDS011;1875;52.492;6.860;2022-10-15T01:53:10;116.63;;;41.70;;
3718;SDS011;1875;52.492;6.860;2022-10-15T01:55:38;130.07;;;40.37;;
3718;SDS011;1875;52.492;6.860;2022-10-15T01:58:08;124.70;;;42.60;;
3718;SDS011;1875;52.492;6.860;2022-10-15T02:00:37;126.93;;;41.40;;
3718;SDS011;1875;52.492;6.860;2022-10-15T02:03:06;127.13;;;41.13;;
3718;SDS011;1875;52.492;6.860;2022-10-15T02:05:34;133.27;;;43.50;;
3718;SDS011;1875;52.492;6.860;2022-10-15T02:08:05;133.10;;;43.23;;
3718;SDS011;1875;52.492;6.860;2022-10-15T02:10:38;126.40;;;41.20;;
3718;SDS011;1875;52.492;6.860;2022-10-15T02:13:11;130.30;;;46.33;;
3718;SDS011;1875;52.492;6.860;2022-10-15T02:15:43;132.07;;;44.47;;
3718;SDS011;1875;52.492;6.860;2022-10-15T02:18:15;128.77;;;41.00;;
3718;SDS011;1875;52.492;6.860;2022-10-15T02:20:46;130.67;;;43.30;;
3718;SDS011;1875;52.492;6.860;2022-10-15T02:23:18;129.03;;;42.47;;
3718;SDS011;1875;52.492;6.860;2022-10-15T02:25:47;131.37;;;40.83;;
3718;SDS011;1875;52.492;6.860;2022-10-15T02:28:17;130.83;;;40.73;;
3718;SDS011;1875;52.492;6.860;2022-10-15T02:30:47;134.63;;;44.63;;
3718;SDS011;1875;52.492;6.860;2022-10-15T02:33:17;129.73;;;43.00;;
3718;SDS011;1875;52.492;6.860;2022-10-15T02:35:46;132.33;;;42.80;;
3718;SDS011;1875;52.492;6.860;2022-10-15T02:38:17;128.33;;;41.67;;
3718;SDS011;1875;52.492;6.860;2022-10-15T02:40:46;132.37;;;42.23;;
3718;SDS011;1875;52.492;6.860;2022-10-15T02:43:14;117.40;;;43.10;;
3718;SDS011;1875;52.492;6.860;2022-10-15T02:45:42;130.53;;;40.90;;
3718;SDS011;1875;52.492;6.860;2022-10-15T02:48:09;132.30;;;43.57;;
3718;SDS011;1875;52.492;6.860;2022-10-15T02:50:38;126.17;;;39.70;;
3718;SDS011;1875;52.492;6.860;2022-10-15T02:53:06;160.07;;;48.27;;
3718;SDS011;1875;52.492;6.860;2022-10-15T02:55:33;150.77;;;47.53;;
3718;SDS011;1875;52.492;6.860;2022-10-15T02:58:01;104.13;;;40.53;;
3718;SDS011;1875;52.492;6.860;2022-10-15T03:00:28;111.87;;;41.67;;
3718;SDS011;1875;52.492;6.860;2022-10-15T03:02:56;111.67;;;39.10;;
3718;SDS011;1875;52.492;6.860;2022-10-15T03:05:24;118.87;;;40.93;;
3718;SDS011;1875;52.492;6.860;2022-10-15T03:07:59;116.37;;;39.20;;
3718;SDS011;1875;52.492;6.860;2022-10-15T03:10:26;117.13;;;40.20;;
3718;SDS011;1875;52.492;6.860;2022-10-15T03:12:54;117.07;;;39.90;;
3718;SDS011;1875;52.492;6.860;2022-10-15T03:15:21;119.53;;;41.90;;
3718;SDS011;1875;52.492;6.860;2022-10-15T03:17:49;121.47;;;40.40;;
3718;SDS011;1875;52.492;6.860;2022-10-15T03:20:16;121.23;;;39.70;;
3718;SDS011;1875;52.492;6.860;2022-10-15T03:22:44;118.33;;;38.30;;
3718;SDS011;1875;52.492;6.860;2022-10-15T03:25:13;119.70;;;38.43;;
3718;SDS011;1875;52.492;6.860;2022-10-15T03:27:41;118.80;;;40.13;;
3718;SDS011;1875;52.492;6.860;2022-10-15T03:30:09;118.13;;;38.73;;
3718;SDS011;1875;52.492;6.860;2022-10-15T03:32:37;122.23;;;39.53;;
3718;SDS011;1875;52.492;6.860;2022-10-15T03:35:05;120.40;;;38.83;;
3718;SDS011;1875;52.492;6.860;2022-10-15T03:37:33;113.20;;;40.50;;
3718;SDS011;1875;52.492;6.860;2022-10-15T03:40:00;124.17;;;39.97;;
3718;SDS011;1875;52.492;6.860;2022-10-15T03:42:29;122.93;;;40.13;;
3718;SDS011;1875;52.492;6.860;2022-10-15T03:44:57;122.37;;;39.17;;
3718;SDS011;1875;52.492;6.860;2022-10-15T03:47:24;119.50;;;41.77;;
3718;SDS011;1875;52.492;6.860;2022-10-15T03:49:52;118.60;;;37.63;;
3718;SDS011;1875;52.492;6.860;2022-10-15T03:52:19;131.97;;;45.20;;
3718;SDS011;1875;52.492;6.860;2022-10-15T03:54:47;127.37;;;43.47;;
3718;SDS011;1875;52.492;6.860;2022-10-15T03:57:15;124.53;;;42.80;;
3718;SDS011;1875;52.492;6.860;2022-10-15T03:59:44;123.53;;;39.73;;
3718;SDS011;1875;52.492;6.860;2022-10-15T04:02:11;120.03;;;40.80;;
3718;SDS011;1875;52.492;6.860;2022-10-15T04:04:39;112.73;;;39.03;;
3718;SDS011;1875;52.492;6.860;2022-10-15T04:07:06;116.63;;;40.20;;
3718;SDS011;1875;52.492;6.860;2022-10-15T04:09:34;113.93;;;40.43;;
3718;SDS011;1875;52.492;6.860;2022-10-15T04:12:01;117.63;;;38.83;;
3718;SDS011;1875;52.492;6.860;2022-10-15T04:14:29;121.27;;;40.97;;
3718;SDS011;1875;52.492;6.860;2022-10-15T04:16:58;123.03;;;40.97;;
3718;SDS011;1875;52.492;6.860;2022-10-15T04:19:25;130.23;;;44.70;;
3718;SDS011;1875;52.492;6.860;2022-10-15T04:21:53;128.03;;;42.03;;
3718;SDS011;1875;52.492;6.860;2022-10-15T04:24:20;124.93;;;42.03;;
3718;SDS011;1875;52.492;6.860;2022-10-15T04:26:48;114.27;;;42.00;;
3718;SDS011;1875;52.492;6.860;2022-10-15T04:29:16;139.10;;;50.70;;
3718;SDS011;1875;52.492;6.860;2022-10-15T04:31:43;124.13;;;40.73;;
3718;SDS011;1875;52.492;6.860;2022-10-15T04:34:12;126.93;;;40.37;;
3718;SDS011;1875;52.492;6.860;2022-10-15T04:36:40;127.13;;;40.50;;
3718;SDS011;1875;52.492;6.860;2022-10-15T04:39:07;126.07;;;39.83;;
3718;SDS011;1875;52.492;6.860;2022-10-15T04:41:39;121.97;;;39.37;;
3718;SDS011;1875;52.492;6.860;2022-10-15T04:44:07;125.63;;;39.57;;
3718;SDS011;1875;52.492;6.860;2022-10-15T04:46:34;125.87;;;40.70;;
3718;SDS011;1875;52.492;6.860;2022-10-15T04:49:02;126.70;;;45.10;;
3718;SDS011;1875;52.492;6.860;2022-10-15T04:51:31;120.70;;;41.50;;
3718;SDS011;1875;52.492;6.860;2022-10-15T04:53:58;160.37;;;61.23;;
3718;SDS011;1875;52.492;6.860;2022-10-15T04:56:26;124.87;;;40.87;;
3718;SDS011;1875;52.492;6.860;2022-10-15T04:58:54;129.73;;;45.50;;
3718;SDS011;1875;52.492;6.860;2022-10-15T05:01:22;127.13;;;44.80;;
3718;SDS011;1875;52.492;6.860;2022-10-15T05:03:49;126.83;;;41.27;;
3718;SDS011;1875;52.492;6.860;2022-10-15T05:06:17;124.87;;;41.10;;
3718;SDS011;1875;52.492;6.860;2022-10-15T05:08:47;133.37;;;51.50;;
3718;SDS011;1875;52.492;6.860;2022-10-15T05:11:16;114.63;;;41.17;;
3718;SDS011;1875;52.492;6.860;2022-10-15T05:13:44;121.47;;;38.40;;
3718;SDS011;1875;52.492;6.860;2022-10-15T05:16:12;127.10;;;40.30;;
3718;SDS011;1875;52.492;6.860;2022-10-15T05:18:41;117.80;;;49.70;;
3718;SDS011;1875;52.492;6.860;2022-10-15T05:21:11;128.17;;;41.87;;
3718;SDS011;1875;52.492;6.860;2022-10-15T05:23:38;121.63;;;40.57;;
3718;SDS011;1875;52.492;6.860;2022-10-15T05:26:10;127.67;;;39.50;;
3718;SDS011;1875;52.492;6.860;2022-10-15T05:28:38;126.23;;;46.17;;
3718;SDS011;1875;52.492;6.860;2022-10-15T05:31:06;122.33;;;39.70;;
3718;SDS011;1875;52.492;6.860;2022-10-15T05:33:37;123.93;;;40.70;;
3718;SDS011;1875;52.492;6.860;2022-10-15T05:36:08;127.23;;;42.70;;
3718;SDS011;1875;52.492;6.860;2022-10-15T05:38:36;134.07;;;47.60;;
3718;SDS011;1875;52.492;6.860;2022-10-15T05:41:04;113.57;;;40.77;;
3718;SDS011;1875;52.492;6.860;2022-10-15T05:43:33;125.53;;;40.67;;
3718;SDS011;1875;52.492;6.860;2022-10-15T05:46:06;131.93;;;43.00;;
3718;SDS011;1875;52.492;6.860;2022-10-15T05:48:33;133.70;;;45.93;;
3718;SDS011;1875;52.492;6.860;2022-10-15T05:51:01;129.93;;;42.97;;
3718;SDS011;1875;52.492;6.860;2022-10-15T05:53:29;129.27;;;39.97;;
3718;SDS011;1875;52.492;6.860;2022-10-15T05:55:57;129.37;;;42.10;;
3718;SDS011;1875;52.492;6.860;2022-10-15T05:58:25;126.63;;;40.80;;
3718;SDS011;1875;52.492;6.860;2022-10-15T06:01:00;128.27;;;41.33;;
3718;SDS011;1875;52.492;6.860;2022-10-15T06:03:29;128.97;;;44.50;;
3718;SDS011;1875;52.492;6.860;2022-10-15T06:05:56;131.87;;;42.47;;
3718;SDS011;1875;52.492;6.860;2022-10-15T06:08:24;128.73;;;42.07;;
3718;SDS011;1875;52.492;6.860;2022-10-15T06:10:51;118.87;;;44.33;;
3718;SDS011;1875;52.492;6.860;2022-10-15T06:13:19;126.43;;;40.60;;
3718;SDS011;1875;52.492;6.860;2022-10-15T06:15:47;121.23;;;38.53;;
3718;SDS011;1875;52.492;6.860;2022-10-15T06:18:15;125.77;;;39.87;;
3718;SDS011;1875;52.492;6.860;2022-10-15T06:20:43;126.73;;;41.53;;
3718;SDS011;1875;52.492;6.860;2022-10-15T06:23:11;117.63;;;43.27;;
3718;SDS011;1875;52.492;6.860;2022-10-15T06:25:38;128.43;;;43.37;;
3718;SDS011;1875;52.492;6.860;2022-10-15T06:28:06;134.93;;;49.00;;
3718;SDS011;1875;52.492;6.860;2022-10-15T06:30:34;131.67;;;43.73;;
3718;SDS011;1875;52.492;6.860;2022-10-15T06:33:02;130.73;;;41.37;;
3718;SDS011;1875;52.492;6.860;2022-10-15T06:35:31;131.20;;;41.90;;
3718;SDS011;1875;52.492;6.860;2022-10-15T06:38:00;127.37;;;41.60;;
3718;SDS011;1875;52.492;6.860;2022-10-15T06:40:28;122.93;;;45.13;;
3718;SDS011;1875;52.492;6.860;2022-10-15T06:43:01;130.43;;;41.17;;
3718;SDS011;1875;52.492;6.860;2022-10-15T06:45:29;128.17;;;41.80;;
3718;SDS011;1875;52.492;6.860;2022-10-15T06:47:57;144.03;;;48.83;;
3718;SDS011;1875;52.492;6.860;2022-10-15T06:50:24;146.73;;;46.33;;
3718;SDS011;1875;52.492;6.860;2022-10-15T06:52:53;143.73;;;45.27;;
3718;SDS011;1875;52.492;6.860;2022-10-15T06:55:21;142.67;;;45.57;;
3718;SDS011;1875;52.492;6.860;2022-10-15T06:57:49;142.97;;;43.40;;
3718;SDS011;1875;52.492;6.860;2022-10-15T07:00:16;147.73;;;49.40;;
3718;SDS011;1875;52.492;6.860;2022-10-15T07:02:44;143.80;;;44.43;;
3718;SDS011;1875;52.492;6.860;2022-10-15T07:05:11;132.87;;;42.53;;
3718;SDS011;1875;52.492;6.860;2022-10-15T07:07:39;133.13;;;44.30;;
3718;SDS011;1875;52.492;6.860;2022-10-15T07:10:08;146.87;;;45.87;;
3718;SDS011;1875;52.492;6.860;2022-10-15T07:12:36;143.20;;;44.37;;
3718;SDS011;1875;52.492;6.860;2022-10-15T07:15:04;149.80;;;47.37;;
3718;SDS011;1875;52.492;6.860;2022-10-15T07:17:32;144.57;;;42.90;;
3718;SDS011;1875;52.492;6.860;2022-10-15T07:20:00;141.83;;;43.37;;
3718;SDS011;1875;52.492;6.860;2022-10-15T07:22:27;147.17;;;47.20;;
3718;SDS011;1875;52.492;6.860;2022-10-15T07:24:55;148.50;;;46.50;;
3718;SDS011;1875;52.492;6.860;2022-10-15T07:27:24;142.97;;;45.87;;
3718;SDS011;1875;52.492;6.860;2022-10-15T07:29:51;161.57;;;46.20;;
3718;SDS011;1875;52.492;6.860;2022-10-15T07:32:19;166.97;;;47.70;;
3718;SDS011;1875;52.492;6.860;2022-10-15T07:34:47;169.87;;;46.80;;
3718;SDS011;1875;52.492;6.860;2022-10-15T07:37:14;172.47;;;50.13;;
3718;SDS011;1875;52.492;6.860;2022-10-15T07:39:42;179.13;;;55.13;;
3718;SDS011;1875;52.492;6.860;2022-10-15T07:42:09;170.83;;;47.97;;
3718;SDS011;1875;52.492;6.860;2022-10-15T07:44:39;170.07;;;47.93;;
3718;SDS011;1875;52.492;6.860;2022-10-15T07:47:07;171.40;;;47.83;;
3718;SDS011;1875;52.492;6.860;2022-10-15T07:49:34;179.47;;;52.97;;
3718;SDS011;1875;52.492;6.860;2022-10-15T07:52:02;170.07;;;46.20;;
3718;SDS011;1875;52.492;6.860;2022-10-15T07:54:31;175.43;;;49.60;;
3718;SDS011;1875;52.492;6.860;2022-10-15T07:56:58;171.07;;;48.87;;
3718;SDS011;1875;52.492;6.860;2022-10-15T07:59:26;189.00;;;60.30;;
3718;SDS011;1875;52.492;6.860;2022-10-15T08:01:55;176.63;;;50.30;;
3718;SDS011;1875;52.492;6.860;2022-10-15T08:04:22;172.97;;;51.07;;
3718;SDS011;1875;52.492;6.860;2022-10-15T08:06:50;169.30;;;47.40;;
3718;SDS011;1875;52.492;6.860;2022-10-15T08:09:17;175.40;;;49.87;;
3718;SDS011;1875;52.492;6.860;2022-10-15T08:11:45;175.17;;;48.60;;
3718;SDS011;1875;52.492;6.860;2022-10-15T08:14:12;177.73;;;51.13;;
3718;SDS011;1875;52.492;6.860;2022-10-15T08:16:40;165.50;;;44.60;;
3718;SDS011;1875;52.492;6.860;2022-10-15T08:19:09;185.47;;;56.27;;
3718;SDS011;1875;52.492;6.860;2022-10-15T08:21:36;180.87;;;54.00;;
3718;SDS011;1875;52.492;6.860;2022-10-15T08:24:07;168.63;;;47.80;;
3718;SDS011;1875;52.492;6.860;2022-10-15T08:26:35;175.77;;;50.37;;
3718;SDS011;1875;52.492;6.860;2022-10-15T08:29:03;171.50;;;48.07;;
3718;SDS011;1875;52.492;6.860;2022-10-15T08:31:30;177.17;;;51.13;;
3718;SDS011;1875;52.492;6.860;2022-10-15T08:33:58;182.93;;;59.43;;
3718;SDS011;1875;52.492;6.860;2022-10-15T08:36:27;177.70;;;54.57;;
3718;SDS011;1875;52.492;6.860;2022-10-15T08:38:55;177.47;;;52.10;;
3718;SDS011;1875;52.492;6.860;2022-10-15T08:41:25;177.70;;;51.97;;
3718;SDS011;1875;52.492;6.860;2022-10-15T08:43:56;205.47;;;74.37;;
3718;SDS011;1875;52.492;6.860;2022-10-15T08:46:32;177.40;;;53.60;;
3718;SDS011;1875;52.492;6.860;2022-10-15T08:49:02;178.93;;;57.40;;
3718;SDS011;1875;52.492;6.860;2022-10-15T08:51:37;172.90;;;50.33;;
3718;SDS011;1875;52.492;6.860;2022-10-15T08:54:08;167.43;;;46.37;;
3718;SDS011;1875;52.492;6.860;2022-10-15T08:56:42;168.83;;;48.37;;
3718;SDS011;1875;52.492;6.860;2022-10-15T08:59:12;164.73;;;49.20;;
3718;SDS011;1875;52.492;6.860;2022-10-15T09:01:46;172.57;;;48.47;;
3718;SDS011;1875;52.492;6.860;2022-10-15T09:04:20;169.53;;;47.50;;
3718;SDS011;1875;52.492;6.860;2022-10-15T09:07:00;171.53;;;49.10;;
3718;SDS011;1875;52.492;6.860;2022-10-15T09:09:36;175.57;;;52.60;;
3718;SDS011;1875;52.492;6.860;2022-10-15T09:12:15;172.37;;;49.27;;
3718;SDS011;1875;52.492;6.860;2022-10-15T09:14:48;173.13;;;52.13;;
3718;SDS011;1875;52.492;6.860;2022-10-15T09:17:18;177.27;;;52.33;;
3718;SDS011;1875;52.492;6.860;2022-10-15T09:19:47;174.87;;;51.30;;
3718;SDS011;1875;52.492;6.860;2022-10-15T09:22:22;177.33;;;56.60;;
3718;SDS011;1875;52.492;6.860;2022-10-15T09:24:51;175.67;;;50.23;;
3718;SDS011;1875;52.492;6.860;2022-10-15T09:27:21;177.53;;;54.90;;
3718;SDS011;1875;52.492;6.860;2022-10-15T09:29:53;172.33;;;49.10;;
3718;SDS011;1875;52.492;6.860;2022-10-15T09:32:28;170.57;;;52.47;;
3718;SDS011;1875;52.492;6.860;2022-10-15T09:35:00;184.03;;;54.97;;
3718;SDS011;1875;52.492;6.860;2022-10-15T09:37:35;169.87;;;46.67;;
3718;SDS011;1875;52.492;6.860;2022-10-15T09:40:14;175.13;;;46.63;;
3718;SDS011;1875;52.492;6.860;2022-10-15T09:42:50;179.97;;;51.07;;
3718;SDS011;1875;52.492;6.860;2022-10-15T09:45:19;186.00;;;53.23;;
3718;SDS011;1875;52.492;6.860;2022-10-15T09:47:50;181.27;;;50.13;;
3718;SDS011;1875;52.492;6.860;2022-10-15T09:50:18;186.83;;;54.40;;
3718;SDS011;1875;52.492;6.860;2022-10-15T09:52:54;178.83;;;47.57;;
3718;SDS011;1875;52.492;6.860;2022-10-15T09:55:30;183.33;;;50.23;;
3718;SDS011;1875;52.492;6.860;2022-10-15T09:58:02;190.53;;;55.93;;
3718;SDS011;1875;52.492;6.860;2022-10-15T10:03:27;193.40;;;58.07;;
3718;SDS011;1875;52.492;6.860;2022-10-15T10:06:00;186.27;;;51.07;;
3718;SDS011;1875;52.492;6.860;2022-10-15T10:08:32;176.27;;;51.87;;
3718;SDS011;1875;52.492;6.860;2022-10-15T10:11:02;183.13;;;51.00;;
3718;SDS011;1875;52.492;6.860;2022-10-15T10:13:32;180.93;;;49.63;;
3718;SDS011;1875;52.492;6.860;2022-10-15T10:16:01;177.13;;;52.87;;
3718;SDS011;1875;52.492;6.860;2022-10-15T10:18:31;173.73;;;52.83;;
3718;SDS011;1875;52.492;6.860;2022-10-15T10:20:59;187.37;;;51.63;;
3718;SDS011;1875;52.492;6.860;2022-10-15T10:23:29;189.87;;;51.73;;
3718;SDS011;1875;52.492;6.860;2022-10-15T10:26:01;177.27;;;48.30;;
3718;SDS011;1875;52.492;6.860;2022-10-15T10:28:31;175.10;;;51.10;;
3718;SDS011;1875;52.492;6.860;2022-10-15T10:31:04;179.47;;;51.13;;
3718;SDS011;1875;52.492;6.860;2022-10-15T10:33:34;182.23;;;54.40;;
3718;SDS011;1875;52.492;6.860;2022-10-15T10:36:03;181.87;;;51.67;;
3718;SDS011;1875;52.492;6.860;2022-10-15T10:38:32;170.13;;;52.53;;
3718;SDS011;1875;52.492;6.860;2022-10-15T10:41:02;159.10;;;45.63;;
3718;SDS011;1875;52.492;6.860;2022-10-15T10:43:33;184.53;;;55.13;;
3718;SDS011;1875;52.492;6.860;2022-10-15T10:46:08;179.33;;;54.87;;
3718;SDS011;1875;52.492;6.860;2022-10-15T10:48:43;185.07;;;68.50;;
3718;SDS011;1875;52.492;6.860;2022-10-15T10:51:13;171.03;;;54.33;;
3718;SDS011;1875;52.492;6.860;2022-10-15T10:53:49;156.33;;;45.47;;
3718;SDS011;1875;52.492;6.860;2022-10-15T10:56:21;163.27;;;50.50;;
3718;SDS011;1875;52.492;6.860;2022-10-15T10:58:54;165.23;;;57.97;;
3718;SDS011;1875;52.492;6.860;2022-10-15T11:01:24;175.10;;;55.70;;
3718;SDS011;1875;52.492;6.860;2022-10-15T11:03:53;164.43;;;51.77;;
3718;SDS011;1875;52.492;6.860;2022-10-15T11:06:27;189.23;;;64.90;;
3718;SDS011;1875;52.492;6.860;2022-10-15T11:09:12;140.87;;;39.07;;
3718;SDS011;1875;52.492;6.860;2022-10-15T11:11:47;187.67;;;60.57;;
3718;SDS011;1875;52.492;6.860;2022-10-15T11:14:23;195.90;;;57.77;;
3718;SDS011;1875;52.492;6.860;2022-10-15T11:16:55;173.67;;;55.03;;
3718;SDS011;1875;52.492;6.860;2022-10-15T11:19:28;192.23;;;56.80;;
3718;SDS011;1875;52.492;6.860;2022-10-15T11:22:23;205.50;;;54.87;;
3718;SDS011;1875;52.492;6.860;2022-10-15T11:24:59;181.90;;;53.70;;
3718;SDS011;1875;52.492;6.860;2022-10-15T11:27:41;193.73;;;57.10;;
3718;SDS011;1875;52.492;6.860;2022-10-15T11:30:18;172.83;;;51.50;;
3718;SDS011;1875;52.492;6.860;2022-10-15T11:32:55;182.33;;;55.07;;
3718;SDS011;1875;52.492;6.860;2022-10-15T11:35:35;159.83;;;44.80;;
3718;SDS011;1875;52.492;6.860;2022-10-15T11:38:25;193.87;;;56.93;;
3718;SDS011;1875;52.492;6.860;2022-10-15T11:40:59;184.67;;;54.30;;
3718;SDS011;1875;52.492;6.860;2022-10-15T11:43:41;180.57;;;56.80;;
3718;SDS011;1875;52.492;6.860;2022-10-15T11:46:17;172.57;;;53.87;;
3718;SDS011;1875;52.492;6.860;2022-10-15T11:48:50;188.23;;;61.03;;
3718;SDS011;1875;52.492;6.860;2022-10-15T11:51:29;186.17;;;59.93;;
3718;SDS011;1875;52.492;6.860;2022-10-15T11:54:12;170.70;;;50.93;;
3718;SDS011;1875;52.492;6.860;2022-10-15T11:56:48;153.43;;;44.93;;
3718;SDS011;1875;52.492;6.860;2022-10-15T11:59:23;201.83;;;69.20;;
3718;SDS011;1875;52.492;6.860;2022-10-15T12:01:56;170.80;;;55.33;;
3718;SDS011;1875;52.492;6.860;2022-10-15T12:04:28;185.03;;;60.23;;
3718;SDS011;1875;52.492;6.860;2022-10-15T12:06:59;185.27;;;52.43;;
3718;SDS011;1875;52.492;6.860;2022-10-15T12:09:34;184.30;;;64.10;;
3718;SDS011;1875;52.492;6.860;2022-10-15T12:12:03;199.97;;;63.47;;
3718;SDS011;1875;52.492;6.860;2022-10-15T12:14:37;180.97;;;59.97;;
3718;SDS011;1875;52.492;6.860;2022-10-15T12:17:10;179.17;;;58.17;;
3718;SDS011;1875;52.492;6.860;2022-10-15T12:19:41;190.03;;;56.57;;
3718;SDS011;1875;52.492;6.860;2022-10-15T12:22:11;201.07;;;62.57;;
3718;SDS011;1875;52.492;6.860;2022-10-15T12:24:49;178.00;;;57.40;;
3718;SDS011;1875;52.492;6.860;2022-10-15T12:27:20;186.67;;;59.40;;
3718;SDS011;1875;52.492;6.860;2022-10-15T12:29:51;183.90;;;56.60;;
3718;SDS011;1875;52.492;6.860;2022-10-15T12:32:45;187.63;;;52.67;;
3718;SDS011;1875;52.492;6.860;2022-10-15T12:35:18;177.63;;;54.53;;
3718;SDS011;1875;52.492;6.860;2022-10-15T12:37:48;167.90;;;50.60;;
3718;SDS011;1875;52.492;6.860;2022-10-15T12:40:24;159.67;;;45.83;;
3718;SDS011;1875;52.492;6.860;2022-10-15T12:42:54;169.17;;;51.70;;
3718;SDS011;1875;52.492;6.860;2022-10-15T12:45:27;165.77;;;48.43;;
3718;SDS011;1875;52.492;6.860;2022-10-15T12:48:18;175.67;;;48.90;;
3718;SDS011;1875;52.492;6.860;2022-10-15T12:50:47;187.03;;;53.27;;
3718;SDS011;1875;52.492;6.860;2022-10-15T12:53:27;168.93;;;44.30;;
3718;SDS011;1875;52.492;6.860;2022-10-15T12:56:19;168.40;;;49.80;;
3718;SDS011;1875;52.492;6.860;2022-10-15T12:58:48;168.17;;;46.17;;
3718;SDS011;1875;52.492;6.860;2022-10-15T13:01:27;191.53;;;50.43;;
3718;SDS011;1875;52.492;6.860;2022-10-15T13:03:56;186.30;;;55.07;;
3718;SDS011;1875;52.492;6.860;2022-10-15T13:06:28;184.10;;;53.80;;
3718;SDS011;1875;52.492;6.860;2022-10-15T13:09:05;179.10;;;51.50;;
3718;SDS011;1875;52.492;6.860;2022-10-15T13:11:45;178.63;;;49.13;;
3718;SDS011;1875;52.492;6.860;2022-10-15T13:14:16;173.47;;;52.63;;
3718;SDS011;1875;52.492;6.860;2022-10-15T13:16:49;196.23;;;52.50;;
3718;SDS011;1875;52.492;6.860;2022-10-15T13:19:17;172.97;;;52.70;;
3718;SDS011;1875;52.492;6.860;2022-10-15T13:21:46;191.83;;;53.57;;
3718;SDS011;1875;52.492;6.860;2022-10-15T13:24:15;176.60;;;53.20;;
3718;SDS011;1875;52.492;6.860;2022-10-15T13:26:44;179.10;;;52.60;;
3718;SDS011;1875;52.492;6.860;2022-10-15T13:29:13;165.43;;;50.77;;
3718;SDS011;1875;52.492;6.860;2022-10-15T13:31:42;174.63;;;51.47;;
3718;SDS011;1875;52.492;6.860;2022-10-15T13:34:15;165.40;;;51.47;;
3718;SDS011;1875;52.492;6.860;2022-10-15T13:36:47;205.53;;;54.40;;
3718;SDS011;1875;52.492;6.860;2022-10-15T13:39:23;196.23;;;58.10;;
3718;SDS011;1875;52.492;6.860;2022-10-15T13:42:02;196.13;;;55.70;;
3718;SDS011;1875;52.492;6.860;2022-10-15T13:44:33;198.27;;;57.27;;
3718;SDS011;1875;52.492;6.860;2022-10-15T13:47:01;197.47;;;57.50;;
3718;SDS011;1875;52.492;6.860;2022-10-15T13:49:30;200.17;;;57.90;;
3718;SDS011;1875;52.492;6.860;2022-10-15T13:51:58;197.27;;;53.70;;
3718;SDS011;1875;52.492;6.860;2022-10-15T13:54:27;193.90;;;54.00;;
3718;SDS011;1875;52.492;6.860;2022-10-15T13:56:56;180.83;;;44.93;;
3718;SDS011;1875;52.492;6.860;2022-10-15T13:59:27;202.60;;;61.17;;
3718;SDS011;1875;52.492;6.860;2022-10-15T14:01:57;195.73;;;49.37;;
3718;SDS011;1875;52.492;6.860;2022-10-15T14:04:26;189.40;;;54.50;;
3718;SDS011;1875;52.492;6.860;2022-10-15T14:06:56;182.93;;;55.30;;
3718;SDS011;1875;52.492;6.860;2022-10-15T14:09:28;192.13;;;54.53;;
3718;SDS011;1875;52.492;6.860;2022-10-15T14:11:57;196.43;;;74.93;;
3718;SDS011;1875;52.492;6.860;2022-10-15T14:14:30;169.57;;;56.33;;
3718;SDS011;1875;52.492;6.860;2022-10-15T14:16:59;149.70;;;44.67;;
3718;SDS011;1875;52.492;6.860;2022-10-15T14:19:27;178.60;;;59.70;;
3718;SDS011;1875;52.492;6.860;2022-10-15T14:21:58;162.07;;;51.10;;
3718;SDS011;1875;52.492;6.860;2022-10-15T14:24:28;174.33;;;57.97;;
3718;SDS011;1875;52.492;6.860;2022-10-15T14:27:02;173.13;;;53.30;;
3718;SDS011;1875;52.492;6.860;2022-10-15T14:29:35;198.30;;;77.00;;
3718;SDS011;1875;52.492;6.860;2022-10-15T14:32:21;163.13;;;51.30;;
3718;SDS011;1875;52.492;6.860;2022-10-15T14:34:50;183.03;;;56.57;;
3718;SDS011;1875;52.492;6.860;2022-10-15T14:37:31;171.37;;;57.40;;
3718;SDS011;1875;52.492;6.860;2022-10-15T14:40:15;165.83;;;53.07;;
3718;SDS011;1875;52.492;6.860;2022-10-15T14:42:45;162.87;;;51.40;;
3718;SDS011;1875;52.492;6.860;2022-10-15T14:45:18;168.50;;;54.97;;
3718;SDS011;1875;52.492;6.860;2022-10-15T14:47:48;186.03;;;59.37;;
3718;SDS011;1875;52.492;6.860;2022-10-15T14:50:17;172.87;;;53.53;;
3718;SDS011;1875;52.492;6.860;2022-10-15T14:52:47;185.30;;;54.50;;
3718;SDS011;1875;52.492;6.860;2022-10-15T14:55:18;197.83;;;57.70;;
3718;SDS011;1875;52.492;6.860;2022-10-15T14:57:58;199.53;;;63.50;;
3718;SDS011;1875;52.492;6.860;2022-10-15T15:00:27;202.93;;;67.40;;
3718;SDS011;1875;52.492;6.860;2022-10-15T15:02:58;181.20;;;54.63;;